createdAt,value
2022-08-12T00:00:15.187Z,0.00
2022-08-12T00:01:14.915Z,0.00
2022-08-12T00:02:14.915Z,0.00
2022-08-12T00:03:15.038Z,0.00
2022-08-12T00:04:14.939Z,0.00
2022-08-12T00:05:14.847Z,0.00
2022-08-12T00:06:15.039Z,0.00
2022-08-12T00:07:14.825Z,0.00
2022-08-12T00:08:14.805Z,0.00
2022-08-12T00:09:14.956Z,0.00
2022-08-12T00:10:14.869Z,0.00
2022-08-12T00:11:14.807Z,0.00
2022-08-12T00:12:14.785Z,0.00
2022-08-12T00:13:14.895Z,0.00
2022-08-12T00:14:14.862Z,0.00
2022-08-12T00:15:14.905Z,0.00
2022-08-12T00:16:14.819Z,0.00
2022-08-12T00:17:14.916Z,0.00
2022-08-12T00:18:14.803Z,0.00
2022-08-12T00:19:14.727Z,0.00
2022-08-12T00:20:14.632Z,0.00
2022-08-12T00:21:14.761Z,0.00
2022-08-12T00:22:14.610Z,0.00
2022-08-12T00:23:14.681Z,0.00
2022-08-12T00:24:14.768Z,0.00
2022-08-12T00:25:14.641Z,0.00
2022-08-12T00:26:23.546Z,0.00
2022-08-12T00:27:14.619Z,0.00
2022-08-12T00:28:14.675Z,0.00
2022-08-12T00:29:14.786Z,0.00
2022-08-12T00:30:14.625Z,0.00
2022-08-12T00:31:14.713Z,0.00
2022-08-12T00:32:19.481Z,0.00
2022-08-12T00:33:14.584Z,0.00
2022-08-12T00:34:14.774Z,0.00
2022-08-12T00:35:14.488Z,0.00
2022-08-12T00:36:18.649Z,0.00
2022-08-12T00:37:14.643Z,0.00
2022-08-12T00:38:14.461Z,0.00
2022-08-12T00:39:14.701Z,0.00
2022-08-12T00:40:14.608Z,0.00
2022-08-12T00:41:14.443Z,0.00
2022-08-12T00:42:14.466Z,0.00
2022-08-12T00:43:14.523Z,0.00
2022-08-12T00:44:15.213Z,0.00
2022-08-12T00:45:14.556Z,0.00
2022-08-12T00:46:14.379Z,0.00
2022-08-12T00:47:24.648Z,0.00
2022-08-12T00:48:14.451Z,0.00
2022-08-12T00:49:14.438Z,0.00
2022-08-12T00:50:14.497Z,0.00
2022-08-12T00:51:14.471Z,0.00
2022-08-12T00:52:14.603Z,0.00
2022-08-12T00:53:14.638Z,0.00
2022-08-12T00:54:14.438Z,0.00
2022-08-12T00:55:14.336Z,0.00
2022-08-12T00:56:14.413Z,0.00
2022-08-12T00:57:14.307Z,0.00
2022-08-12T00:58:14.365Z,0.00
2022-08-12T00:59:14.404Z,0.00
2022-08-12T01:00:14.357Z,0.00
2022-08-12T01:01:14.433Z,0.00
2022-08-12T01:02:14.562Z,0.00
2022-08-12T01:03:14.374Z,0.00
2022-08-12T01:04:14.218Z,0.00
2022-08-12T01:05:14.241Z,0.00
2022-08-12T01:06:14.323Z,0.00
2022-08-12T01:07:14.415Z,0.00
2022-08-12T01:08:14.477Z,0.00
2022-08-12T01:09:14.270Z,0.00
2022-08-12T01:10:14.168Z,0.00
2022-08-12T01:11:14.610Z,0.00
2022-08-12T01:12:14.097Z,0.00
2022-08-12T01:13:19.234Z,0.00
2022-08-12T01:14:14.221Z,0.00
2022-08-12T01:15:14.269Z,0.00
2022-08-12T01:16:14.118Z,0.00
2022-08-12T01:17:14.254Z,0.00
2022-08-12T01:18:14.193Z,0.00
2022-08-12T01:19:15.175Z,0.00
2022-08-12T01:20:14.167Z,0.00
2022-08-12T01:21:14.057Z,0.00
2022-08-12T01:22:14.292Z,0.00
2022-08-12T01:23:14.044Z,0.00
2022-08-12T01:24:29.704Z,0.00
2022-08-12T01:25:14.209Z,0.00
2022-08-12T01:26:14.219Z,0.00
2022-08-12T01:27:14.413Z,0.00
2022-08-12T01:28:13.921Z,0.00
2022-08-12T01:29:14.117Z,0.00
2022-08-12T01:30:14.043Z,0.00
2022-08-12T01:31:16.358Z,0.00
2022-08-12T01:32:14.027Z,0.00
2022-08-12T01:33:14.145Z,0.00
2022-08-12T01:34:28.477Z,0.00
2022-08-12T01:35:14.049Z,0.00
2022-08-12T01:36:13.823Z,0.00
2022-08-12T01:37:14.015Z,0.00
2022-08-12T01:38:14.027Z,0.00
2022-08-12T01:39:13.932Z,0.00
2022-08-12T01:40:35.056Z,0.00
2022-08-12T01:41:13.835Z,0.00
2022-08-12T01:42:13.776Z,0.00
2022-08-12T01:43:13.985Z,0.00
2022-08-12T01:44:13.916Z,0.00
2022-08-12T01:45:13.750Z,0.00
2022-08-12T01:46:13.972Z,0.00
2022-08-12T01:47:13.798Z,0.00
2022-08-12T01:48:13.792Z,0.00
2022-08-12T01:49:13.943Z,0.00
2022-08-12T01:50:13.976Z,0.00
2022-08-12T01:51:13.661Z,0.00
2022-08-12T01:52:22.827Z,0.00
2022-08-12T01:53:13.724Z,0.00
2022-08-12T01:54:13.600Z,0.00
2022-08-12T01:55:13.775Z,0.00
2022-08-12T01:56:13.787Z,0.00
2022-08-12T01:57:13.734Z,0.00
2022-08-12T01:58:13.669Z,0.00
2022-08-12T01:59:13.726Z,0.00
2022-08-12T02:00:13.542Z,0.00
2022-08-12T02:01:13.629Z,0.00
2022-08-12T02:02:13.670Z,0.00
2022-08-12T02:03:13.694Z,0.00
2022-08-12T02:04:13.782Z,0.00
2022-08-12T02:05:13.633Z,0.00
2022-08-12T02:06:13.522Z,0.00
2022-08-12T02:07:13.704Z,0.00
2022-08-12T02:08:13.574Z,0.00
2022-08-12T02:09:13.522Z,0.00
2022-08-12T02:10:50.996Z,0.00
2022-08-12T02:11:13.530Z,0.00
2022-08-12T02:12:13.438Z,0.00
2022-08-12T02:13:13.556Z,0.00
2022-08-12T02:14:13.697Z,0.00
2022-08-12T02:15:13.581Z,0.00
2022-08-12T02:16:13.461Z,0.00
2022-08-12T02:17:13.436Z,0.00
2022-08-12T02:18:13.569Z,0.00
2022-08-12T02:19:22.279Z,0.00
2022-08-12T02:20:13.449Z,0.00
2022-08-12T02:21:13.484Z,0.00
2022-08-12T02:22:13.430Z,0.00
2022-08-12T02:23:13.417Z,0.00
2022-08-12T02:24:13.490Z,0.00
2022-08-12T02:25:13.380Z,0.00
2022-08-12T02:26:13.414Z,0.00
2022-08-12T02:27:13.522Z,0.00
2022-08-12T02:28:13.390Z,0.00
2022-08-12T02:29:13.235Z,0.00
2022-08-12T02:30:13.593Z,0.00
2022-08-12T02:31:13.248Z,0.00
2022-08-12T02:32:13.190Z,0.00
2022-08-12T02:33:14.509Z,0.00
2022-08-12T02:34:13.322Z,0.00
2022-08-12T02:35:13.267Z,0.00
2022-08-12T02:36:13.616Z,0.00
2022-08-12T02:37:13.119Z,0.00
2022-08-12T02:38:13.212Z,0.00
2022-08-12T02:39:13.176Z,0.00
2022-08-12T02:40:13.309Z,0.00
2022-08-12T02:41:13.518Z,0.00
2022-08-12T02:42:13.479Z,0.00
2022-08-12T02:43:13.195Z,0.00
2022-08-12T02:44:13.110Z,0.00
2022-08-12T02:45:13.284Z,0.00
2022-08-12T02:46:14.815Z,0.00
2022-08-12T02:47:55.873Z,0.00
2022-08-12T02:48:13.121Z,0.00
2022-08-12T02:49:13.036Z,0.00
2022-08-12T02:50:13.094Z,0.00
2022-08-12T02:51:13.246Z,0.00
2022-08-12T02:52:13.083Z,0.00
2022-08-12T02:53:13.296Z,0.00
2022-08-12T02:54:13.148Z,0.00
2022-08-12T02:55:13.210Z,0.00
2022-08-12T02:56:13.092Z,0.00
2022-08-12T02:57:13.094Z,0.00
2022-08-12T02:58:14.783Z,0.00
2022-08-12T02:59:13.316Z,0.00
2022-08-12T03:00:12.988Z,0.00
2022-08-12T03:01:12.909Z,0.00
2022-08-12T03:02:12.901Z,0.00
2022-08-12T03:03:13.060Z,0.00
2022-08-12T03:04:15.303Z,0.00
2022-08-12T03:05:13.015Z,0.00
2022-08-12T03:06:13.019Z,0.00
2022-08-12T03:07:12.791Z,0.00
2022-08-12T03:08:31.433Z,0.00
2022-08-12T03:09:12.881Z,0.00
2022-08-12T03:10:17.934Z,0.00
2022-08-12T03:11:14.375Z,0.00
2022-08-12T03:12:13.775Z,0.00
2022-08-12T03:13:12.789Z,0.00
2022-08-12T03:14:12.809Z,0.00
2022-08-12T03:15:12.820Z,0.00
2022-08-12T03:16:12.778Z,0.00
2022-08-12T03:17:12.919Z,0.00
2022-08-12T03:18:24.806Z,0.00
2022-08-12T03:19:12.860Z,0.00
2022-08-12T03:20:12.760Z,0.00
2022-08-12T03:21:12.927Z,0.00
2022-08-12T03:22:12.703Z,0.00
2022-08-12T03:23:23.059Z,0.00
2022-08-12T03:24:12.701Z,0.00
2022-08-12T03:25:12.860Z,0.00
2022-08-12T03:26:12.758Z,0.00
2022-08-12T03:27:12.742Z,0.00
2022-08-12T03:28:24.008Z,0.00
2022-08-12T03:29:12.682Z,0.00
2022-08-12T03:30:12.633Z,0.00
2022-08-12T03:31:12.645Z,0.00
2022-08-12T03:32:35.820Z,0.00
2022-08-12T03:33:12.764Z,0.00
2022-08-12T03:34:12.670Z,0.00
2022-08-12T03:35:41.351Z,0.00
2022-08-12T03:36:12.758Z,0.00
2022-08-12T03:37:12.713Z,4.00
2022-08-12T03:38:12.602Z,0.00
2022-08-12T03:39:12.534Z,0.00
2022-08-12T03:40:13.023Z,4.00
2022-08-12T03:41:12.477Z,0.00
2022-08-12T03:42:12.528Z,4.00
2022-08-12T03:43:12.586Z,0.00
2022-08-12T03:44:12.634Z,4.00
2022-08-12T03:45:12.455Z,4.00
2022-08-12T03:46:12.505Z,4.00
2022-08-12T03:47:12.461Z,4.00
2022-08-12T03:48:18.654Z,4.00
2022-08-12T03:49:12.484Z,4.00
2022-08-12T03:50:12.434Z,8.00
2022-08-12T03:51:12.268Z,8.00
2022-08-12T03:52:12.373Z,8.00
2022-08-12T03:53:12.627Z,12.00
2022-08-12T03:54:12.265Z,12.00
2022-08-12T03:55:12.306Z,16.00
2022-08-12T03:56:12.427Z,16.00
2022-08-12T03:57:12.474Z,20.00
2022-08-12T03:58:12.477Z,20.00
2022-08-12T03:59:12.537Z,24.00
2022-08-12T04:00:12.721Z,24.00
2022-08-12T04:01:12.563Z,28.00
2022-08-12T04:02:12.220Z,32.00
2022-08-12T04:03:13.008Z,36.00
2022-08-12T04:04:12.275Z,40.00
2022-08-12T04:05:12.261Z,44.00
2022-08-12T04:06:12.376Z,48.00
2022-08-12T04:07:12.221Z,52.00
2022-08-12T04:08:12.178Z,56.00
2022-08-12T04:09:14.534Z,64.00
2022-08-12T04:10:12.207Z,68.00
2022-08-12T04:11:12.161Z,72.00
2022-08-12T04:12:12.373Z,80.00
2022-08-12T04:13:12.087Z,84.00
2022-08-12T04:14:12.067Z,92.00
2022-08-12T04:15:12.424Z,100.00
2022-08-12T04:16:12.197Z,108.00
2022-08-12T04:17:12.482Z,112.00
2022-08-12T04:18:12.418Z,120.00
2022-08-12T04:19:12.153Z,128.00
2022-08-12T04:20:12.136Z,136.00
2022-08-12T04:21:12.115Z,140.00
2022-08-12T04:22:12.308Z,152.00
2022-08-12T04:23:11.961Z,160.00
2022-08-12T04:24:11.991Z,168.00
2022-08-12T04:25:12.162Z,176.00
2022-08-12T04:26:12.089Z,184.00
2022-08-12T04:27:12.038Z,192.00
2022-08-12T04:28:13.780Z,204.00
2022-08-12T04:29:11.925Z,212.00
2022-08-12T04:30:30.607Z,220.00
2022-08-12T04:31:11.934Z,228.00
2022-08-12T04:32:11.866Z,236.00
2022-08-12T04:33:11.777Z,248.00
2022-08-12T04:34:12.070Z,256.00
2022-08-12T04:35:11.998Z,264.00
2022-08-12T04:36:11.857Z,276.00
2022-08-12T04:37:11.812Z,284.00
2022-08-12T04:38:11.890Z,292.00
2022-08-12T04:39:11.787Z,304.00
2022-08-12T04:40:11.855Z,312.00
2022-08-12T04:41:12.108Z,320.00
2022-08-12T04:42:11.984Z,328.00
2022-08-12T04:44:00.147Z,340.00
2022-08-12T04:44:11.761Z,348.00
2022-08-12T04:45:11.698Z,360.00
2022-08-12T04:46:11.924Z,372.00
2022-08-12T04:47:11.737Z,380.00
2022-08-12T04:48:11.835Z,392.00
2022-08-12T04:49:12.127Z,396.00
2022-08-12T04:50:34.013Z,408.00
2022-08-12T04:51:11.766Z,420.00
2022-08-12T04:52:11.852Z,428.00
2022-08-12T04:53:11.639Z,440.00
2022-08-12T04:54:11.788Z,444.00
2022-08-12T04:55:11.834Z,456.00
2022-08-12T04:56:11.792Z,468.00
2022-08-12T04:57:11.563Z,472.00
2022-08-12T04:58:11.687Z,484.00
2022-08-12T04:59:11.835Z,496.00
2022-08-12T05:00:11.875Z,508.00
2022-08-12T05:01:11.649Z,524.00
2022-08-12T05:02:16.594Z,532.00
2022-08-12T05:03:11.715Z,544.00
2022-08-12T05:04:11.552Z,556.00
2022-08-12T05:05:11.668Z,564.00
2022-08-12T05:06:11.634Z,576.00
2022-08-12T05:07:11.513Z,592.00
2022-08-12T05:08:11.559Z,600.00
2022-08-12T05:09:13.370Z,608.00
2022-08-12T05:10:11.581Z,624.00
2022-08-12T05:11:11.551Z,636.00
2022-08-12T05:12:11.416Z,644.00
2022-08-12T05:13:11.599Z,656.00
2022-08-12T05:14:11.529Z,668.00
2022-08-12T05:15:19.164Z,672.00
2022-08-12T05:16:11.415Z,684.00
2022-08-12T05:17:11.502Z,692.00
2022-08-12T05:18:20.347Z,700.00
2022-08-12T05:19:12.880Z,708.00
2022-08-12T05:20:11.353Z,724.00
2022-08-12T05:21:11.889Z,740.00
2022-08-12T05:22:11.382Z,752.00
2022-08-12T05:23:13.344Z,768.00
2022-08-12T05:24:11.268Z,784.00
2022-08-12T05:25:11.373Z,792.00
2022-08-12T05:26:11.650Z,804.00
2022-08-12T05:27:11.432Z,820.00
2022-08-12T05:28:11.448Z,828.00
2022-08-12T05:29:11.257Z,840.00
2022-08-12T05:30:13.323Z,852.00
2022-08-12T05:31:11.343Z,860.00
2022-08-12T05:32:11.267Z,872.00
2022-08-12T05:33:11.200Z,880.00
2022-08-12T05:34:11.485Z,888.00
2022-08-12T05:35:11.421Z,896.00
2022-08-12T05:36:11.192Z,904.00
2022-08-12T05:37:11.266Z,916.00
2022-08-12T05:38:11.186Z,932.00
2022-08-12T05:39:11.217Z,940.00
2022-08-12T05:40:11.749Z,952.00
2022-08-12T05:41:11.298Z,960.00
2022-08-12T05:42:11.520Z,972.00
2022-08-12T05:43:11.153Z,980.00
2022-08-12T05:44:11.156Z,992.00
2022-08-12T05:45:11.101Z,1004.00
2022-08-12T05:46:11.221Z,1016.00
2022-08-12T05:47:11.076Z,1032.00
2022-08-12T05:48:11.523Z,1040.00
2022-08-12T05:49:11.102Z,1052.00
2022-08-12T05:50:10.946Z,1060.00
2022-08-12T05:51:11.001Z,1080.00
2022-08-12T05:52:11.143Z,1088.00
2022-08-12T05:53:10.983Z,1104.00
2022-08-12T05:54:11.099Z,1112.00
2022-08-12T05:55:11.689Z,1128.00
2022-08-12T05:56:10.997Z,1144.00
2022-08-12T05:57:10.906Z,1156.00
2022-08-12T05:58:11.078Z,1168.00
2022-08-12T05:59:11.582Z,1180.00
2022-08-12T06:00:11.298Z,1192.00
2022-08-12T06:02:11.231Z,1204.00
2022-08-12T06:02:17.585Z,1212.00
2022-08-12T06:03:10.812Z,1224.00
2022-08-12T06:04:10.752Z,1236.00
2022-08-12T06:05:10.860Z,1248.00
2022-08-12T06:06:10.703Z,1256.00
2022-08-12T06:08:00.793Z,1268.00
2022-08-12T06:08:10.692Z,1276.00
2022-08-12T06:09:10.654Z,1284.00
2022-08-12T06:10:10.872Z,1300.00
2022-08-12T06:11:10.644Z,1312.00
2022-08-12T06:12:10.676Z,1324.00
2022-08-12T06:13:10.661Z,1328.00
2022-08-12T06:14:11.873Z,1344.00
2022-08-12T06:15:10.623Z,1356.00
2022-08-12T06:16:10.592Z,1368.00
2022-08-12T06:17:10.581Z,1380.00
2022-08-12T06:18:13.806Z,1392.00
2022-08-12T06:19:10.611Z,1396.00
2022-08-12T06:20:25.859Z,1408.00
2022-08-12T06:21:10.527Z,1420.00
2022-08-12T06:22:10.672Z,1424.00
2022-08-12T06:23:10.522Z,1436.00
2022-08-12T06:24:10.688Z,1440.00
2022-08-12T06:25:10.576Z,1452.00
2022-08-12T06:26:10.515Z,1460.00
2022-08-12T06:27:10.602Z,1464.00
2022-08-12T06:28:10.782Z,1484.00
2022-08-12T06:29:10.626Z,1488.00
2022-08-12T06:30:15.918Z,1496.00
2022-08-12T06:31:27.237Z,1508.00
2022-08-12T06:32:10.449Z,1516.00
2022-08-12T06:33:22.202Z,1536.00
2022-08-12T06:35:22.508Z,1540.00
2022-08-12T06:35:47.025Z,1548.00
2022-08-12T06:36:10.381Z,1548.00
2022-08-12T06:37:10.351Z,1572.00
2022-08-12T06:38:10.349Z,1580.00
2022-08-12T06:39:14.611Z,1588.00
2022-08-12T06:40:10.375Z,1600.00
2022-08-12T06:41:10.424Z,1608.00
2022-08-12T06:42:32.123Z,1620.00
2022-08-12T06:43:10.501Z,1656.00
2022-08-12T06:44:10.321Z,1652.00
2022-08-12T06:45:12.379Z,1660.00
2022-08-12T06:46:10.731Z,1680.00
2022-08-12T06:47:10.838Z,1684.00
2022-08-12T06:48:10.217Z,1692.00
2022-08-12T06:49:10.315Z,1704.00
2022-08-12T06:50:10.223Z,1716.00
2022-08-12T06:51:10.211Z,1716.00
2022-08-12T06:52:10.173Z,1728.00
2022-08-12T06:53:10.223Z,1740.00
2022-08-12T06:54:10.177Z,1792.00
2022-08-12T06:55:10.870Z,1820.00
2022-08-12T06:56:12.512Z,1836.00
2022-08-12T06:58:05.311Z,1848.00
2022-08-12T06:58:13.394Z,1860.00
2022-08-12T06:59:10.173Z,1864.00
2022-08-12T07:00:10.678Z,1876.00
2022-08-12T07:01:10.835Z,1884.00
2022-08-12T07:02:11.607Z,1888.00
2022-08-12T07:03:22.923Z,1900.00
2022-08-12T07:04:33.771Z,1912.00
2022-08-12T07:05:10.341Z,1924.00
2022-08-12T07:06:10.201Z,1928.00
2022-08-12T07:07:11.036Z,1940.00
2022-08-12T07:08:10.559Z,1964.00
2022-08-12T07:09:13.291Z,1952.00
2022-08-12T07:10:10.017Z,1972.00
2022-08-12T07:11:10.031Z,1980.00
2022-08-12T07:12:10.182Z,1992.00
2022-08-12T07:13:10.287Z,1996.00
2022-08-12T07:14:14.271Z,2016.00
2022-08-12T07:15:10.168Z,2024.00
2022-08-12T07:16:10.088Z,2032.00
2022-08-12T07:17:10.257Z,2056.00
2022-08-12T07:18:09.971Z,2056.00
2022-08-12T07:19:10.518Z,2064.00
2022-08-12T07:20:11.673Z,2060.00
2022-08-12T07:21:09.909Z,2076.00
2022-08-12T07:22:09.908Z,2092.00
2022-08-12T07:23:09.920Z,2100.00
2022-08-12T07:24:09.819Z,2104.00
2022-08-12T07:25:09.839Z,2112.00
2022-08-12T07:26:10.026Z,2128.00
2022-08-12T07:27:09.865Z,2128.00
2022-08-12T07:28:16.957Z,2144.00
2022-08-12T07:29:09.878Z,2156.00
2022-08-12T07:30:09.949Z,2160.00
2022-08-12T07:31:09.773Z,2176.00
2022-08-12T07:32:09.778Z,2184.00
2022-08-12T07:33:09.731Z,2196.00
2022-08-12T07:34:09.716Z,2208.00
2022-08-12T07:35:09.875Z,2216.00
2022-08-12T07:36:09.724Z,2212.00
2022-08-12T07:37:09.684Z,2248.00
2022-08-12T07:38:09.700Z,2228.00
2022-08-12T07:39:09.695Z,2216.00
2022-08-12T07:40:09.733Z,2208.00
2022-08-12T07:41:15.488Z,2224.00
2022-08-12T07:42:09.662Z,2244.00
2022-08-12T07:43:09.663Z,2272.00
2022-08-12T07:44:09.625Z,2360.00
2022-08-12T07:45:09.619Z,2368.00
2022-08-12T07:46:09.657Z,2404.00
2022-08-12T07:47:09.608Z,2404.00
2022-08-12T07:48:09.613Z,2408.00
2022-08-12T07:49:09.561Z,2416.00
2022-08-12T07:50:09.568Z,2432.00
2022-08-12T07:51:09.722Z,2444.00
2022-08-12T07:52:09.747Z,2460.00
2022-08-12T07:53:09.624Z,2468.00
2022-08-12T07:54:09.520Z,2484.00
2022-08-12T07:55:09.575Z,2504.00
2022-08-12T07:56:09.521Z,2492.00
2022-08-12T07:57:09.556Z,2500.00
2022-08-12T07:58:09.833Z,2528.00
2022-08-12T07:59:09.658Z,2628.00
2022-08-12T08:00:09.618Z,2564.00
2022-08-12T08:01:12.058Z,2560.00
2022-08-12T08:02:09.649Z,2564.00
2022-08-12T08:03:09.528Z,2564.00
2022-08-12T08:04:09.455Z,2572.00
2022-08-12T08:05:09.388Z,2580.00
2022-08-12T08:06:09.808Z,2584.00
2022-08-12T08:07:09.516Z,2592.00
2022-08-12T08:08:09.382Z,2604.00
2022-08-12T08:09:09.893Z,2628.00
2022-08-12T08:10:09.338Z,2632.00
2022-08-12T08:11:10.092Z,2620.00
2022-08-12T08:12:09.305Z,2668.00
2022-08-12T08:13:09.361Z,2644.00
2022-08-12T08:14:09.309Z,2648.00
2022-08-12T08:15:09.504Z,2668.00
2022-08-12T08:16:09.412Z,2684.00
2022-08-12T08:17:09.472Z,2688.00
2022-08-12T08:19:29.415Z,2696.00
2022-08-12T08:20:29.478Z,2720.00
2022-08-12T08:21:29.787Z,2736.00
2022-08-12T08:22:40.605Z,2748.00
2022-08-12T08:23:35.199Z,2760.00
2022-08-12T08:24:29.611Z,2744.00
2022-08-12T08:25:36.500Z,2764.00
2022-08-12T08:26:29.534Z,2776.00
2022-08-12T08:27:29.392Z,2776.00
2022-08-12T08:28:29.486Z,2784.00
2022-08-12T08:29:30.600Z,2800.00
2022-08-12T08:30:29.233Z,2964.00
2022-08-12T08:31:29.371Z,2960.00
2022-08-12T08:32:29.219Z,2976.00
2022-08-12T08:34:09.140Z,2952.00
2022-08-12T08:34:54.150Z,2980.00
2022-08-12T08:35:47.011Z,2944.00
2022-08-12T08:36:29.263Z,2996.00
2022-08-12T08:37:32.971Z,3004.00
2022-08-12T08:38:33.343Z,3016.00
2022-08-12T08:39:29.167Z,3016.00
2022-08-12T08:40:29.176Z,3016.00
2022-08-12T08:42:17.784Z,3076.00
2022-08-12T08:42:29.171Z,3052.00
2022-08-12T08:43:43.810Z,3064.00
2022-08-12T08:44:29.071Z,3060.00
2022-08-12T08:45:29.144Z,3080.00
2022-08-12T08:46:29.077Z,3084.00
2022-08-12T08:47:29.056Z,3100.00
2022-08-12T08:48:29.105Z,3108.00
2022-08-12T08:49:29.043Z,3112.00
2022-08-12T08:50:29.030Z,3140.00
2022-08-12T08:51:29.017Z,3168.00
2022-08-12T08:52:39.713Z,3152.00
2022-08-12T08:53:28.959Z,3148.00
2022-08-12T08:54:28.963Z,3128.00
2022-08-12T08:55:48.065Z,3140.00
2022-08-12T08:56:28.960Z,3144.00
2022-08-12T08:57:44.181Z,3152.00
2022-08-12T08:58:28.928Z,3160.00
2022-08-12T08:59:28.920Z,3168.00
2022-08-12T09:00:28.934Z,3192.00
2022-08-12T09:28:50.005Z,3188.00
2022-08-12T09:28:58.259Z,3308.00
2022-08-12T09:30:10.896Z,3308.00
2022-08-12T09:30:59.042Z,3328.00
2022-08-12T09:32:07.652Z,3348.00
2022-08-12T09:33:14.777Z,3376.00
2022-08-12T09:34:26.846Z,3388.00
2022-08-12T09:34:58.222Z,3384.00
2022-08-12T09:36:05.021Z,3412.00
2022-08-12T09:37:01.567Z,3404.00
2022-08-12T09:38:00.800Z,3392.00
2022-08-12T09:38:59.157Z,3392.00
2022-08-12T09:40:05.338Z,3396.00
2022-08-12T09:42:08.475Z,3388.00
2022-08-12T09:42:49.242Z,3420.00
2022-08-12T09:43:15.304Z,3400.00
2022-08-12T09:44:01.187Z,3424.00
2022-08-12T09:45:18.230Z,3428.00
2022-08-12T09:46:11.146Z,3432.00
2022-08-12T09:46:58.117Z,3424.00
2022-08-12T09:47:59.315Z,3408.00
2022-08-12T09:48:58.028Z,3460.00
2022-08-12T09:49:58.926Z,3468.00
2022-08-12T09:51:00.095Z,3444.00
2022-08-12T09:51:57.977Z,3440.00
2022-08-12T09:53:03.910Z,3472.00
2022-08-12T09:54:08.574Z,3472.00
2022-08-12T09:55:02.500Z,3488.00
2022-08-12T09:56:06.065Z,3464.00
2022-08-12T09:58:46.788Z,3332.00
2022-08-12T09:59:03.988Z,3480.00
2022-08-12T09:59:09.869Z,3496.00
2022-08-12T10:00:17.507Z,3512.00
2022-08-12T10:01:15.201Z,3508.00
2022-08-12T10:02:45.637Z,3504.00
2022-08-12T10:03:31.405Z,3512.00
2022-08-12T10:04:09.886Z,3496.00
2022-08-12T10:05:13.329Z,3504.00
2022-08-12T10:06:19.604Z,3560.00
2022-08-12T10:07:13.046Z,3560.00
2022-08-12T10:08:09.745Z,3608.00
2022-08-12T10:09:09.775Z,3212.00
2022-08-12T10:10:23.952Z,3572.00
2022-08-12T10:11:09.734Z,3576.00
2022-08-12T10:12:12.855Z,3580.00
2022-08-12T10:13:12.140Z,3572.00
2022-08-12T10:14:13.367Z,3544.00
2022-08-12T10:15:25.012Z,3572.00
2022-08-12T10:16:18.723Z,3540.00
2022-08-12T10:17:09.647Z,3460.00
2022-08-12T10:18:09.822Z,3568.00
2022-08-12T10:19:17.688Z,3572.00
2022-08-12T10:20:09.737Z,3604.00
2022-08-12T10:21:09.611Z,3584.00
2022-08-12T10:22:17.185Z,3552.00
2022-08-12T10:23:09.602Z,3620.00
2022-08-12T10:24:10.460Z,3592.00
2022-08-12T10:25:17.570Z,3580.00
2022-08-12T10:26:36.245Z,3548.00
2022-08-12T10:27:14.441Z,3592.00
2022-08-12T10:28:16.326Z,3524.00
2022-08-12T10:30:01.337Z,3520.00
2022-08-12T10:30:54.657Z,3544.00
2022-08-12T10:31:16.090Z,3596.00
2022-08-12T10:32:20.853Z,3596.00
2022-08-12T10:33:18.945Z,3608.00
2022-08-12T10:34:14.923Z,3680.00
2022-08-12T10:35:09.589Z,3648.00
2022-08-12T10:36:09.461Z,3644.00
2022-08-12T10:37:22.746Z,3624.00
2022-08-12T10:38:41.561Z,3612.00
2022-08-12T10:39:44.280Z,3612.00
2022-08-12T10:40:11.395Z,3620.00
2022-08-12T10:41:19.055Z,3648.00
2022-08-12T10:42:09.497Z,3604.00
2022-08-12T10:44:43.268Z,3636.00
2022-08-12T10:45:43.672Z,3608.00
2022-08-12T10:46:45.913Z,3648.00
2022-08-12T10:48:15.973Z,3660.00
2022-08-12T10:50:28.134Z,3676.00
2022-08-12T10:52:04.707Z,3676.00
2022-08-12T10:52:38.812Z,3680.00
2022-08-12T10:53:11.312Z,3660.00
2022-08-12T10:54:10.722Z,3640.00
2022-08-12T10:55:13.337Z,3612.00
2022-08-12T10:56:10.322Z,3652.00
2022-08-12T10:57:18.460Z,3608.00
2022-08-12T10:58:28.404Z,3608.00
2022-08-12T10:59:10.786Z,3620.00
2022-08-12T11:00:34.945Z,3720.00
2022-08-12T11:04:27.681Z,3724.00
2022-08-12T11:04:49.220Z,3612.00
2022-08-12T11:04:55.084Z,3692.00
2022-08-12T11:07:09.299Z,3716.00
2022-08-12T11:08:43.425Z,3712.00
2022-08-12T11:08:49.055Z,3716.00
2022-08-12T11:10:00.280Z,3748.00
2022-08-12T11:10:49.874Z,3712.00
2022-08-12T11:12:35.672Z,3692.00
2022-08-12T11:13:03.585Z,3696.00
2022-08-12T11:13:49.333Z,3732.00
2022-08-12T11:14:51.417Z,3524.00
2022-08-12T11:16:18.952Z,3760.00
2022-08-12T11:17:35.019Z,3800.00
2022-08-12T11:17:52.970Z,3724.00
2022-08-12T11:18:48.791Z,3752.00
2022-08-12T11:19:49.616Z,3716.00
2022-08-12T11:20:49.272Z,3768.00
2022-08-12T11:21:58.467Z,3768.00
2022-08-12T11:22:49.413Z,3752.00
2022-08-12T11:23:53.613Z,3788.00
2022-08-12T11:24:51.445Z,3800.00
2022-08-12T11:25:58.079Z,3824.00
2022-08-12T11:26:48.772Z,3808.00
2022-08-12T11:27:51.373Z,3760.00
2022-08-12T11:28:59.051Z,3748.00
2022-08-12T11:30:05.566Z,3788.00
2022-08-12T11:30:48.735Z,3824.00
2022-08-12T11:32:02.001Z,3824.00
2022-08-12T11:32:48.719Z,3832.00
2022-08-12T11:34:04.503Z,3824.00
2022-08-12T11:36:45.375Z,3828.00
2022-08-12T11:37:58.810Z,3828.00
2022-08-12T11:38:50.530Z,3828.00
2022-08-12T11:40:03.146Z,3868.00
2022-08-12T11:40:46.315Z,3872.00
2022-08-12T11:41:46.289Z,3840.00
2022-08-12T11:42:47.232Z,3844.00
2022-08-12T11:43:50.588Z,3852.00
2022-08-12T11:44:46.231Z,3860.00
2022-08-12T11:45:47.153Z,3884.00
2022-08-12T11:46:46.206Z,3880.00
2022-08-12T11:47:46.275Z,3888.00
2022-08-12T11:48:51.522Z,3860.00
2022-08-12T11:49:49.884Z,3892.00
2022-08-12T11:50:47.162Z,3764.00
2022-08-12T11:51:46.275Z,3816.00
2022-08-12T11:52:55.457Z,3912.00
2022-08-12T11:53:59.458Z,3840.00
2022-08-12T11:54:50.965Z,3912.00
2022-08-12T11:55:46.957Z,3904.00
2022-08-12T11:56:52.390Z,3940.00
2022-08-12T11:58:14.354Z,3920.00
2022-08-12T12:02:02.998Z,3908.00
2022-08-12T12:02:38.490Z,3940.00
2022-08-12T12:03:45.624Z,3944.00
2022-08-12T12:04:38.438Z,3944.00
2022-08-12T12:05:41.760Z,3948.00
2022-08-12T12:06:38.368Z,3956.00
2022-08-12T12:08:41.309Z,3952.00
2022-08-12T12:08:51.628Z,3960.00
2022-08-12T12:09:52.678Z,3980.00
2022-08-12T12:10:38.667Z,3948.00
2022-08-12T12:11:48.689Z,3860.00
2022-08-12T12:12:38.417Z,3944.00
2022-08-12T12:14:08.125Z,3952.00
2022-08-12T12:14:39.217Z,3952.00
2022-08-12T12:15:40.765Z,3936.00
2022-08-12T12:16:40.067Z,3936.00
2022-08-12T12:17:38.762Z,3952.00
2022-08-12T12:18:38.255Z,3972.00
2022-08-12T12:19:45.514Z,3992.00
2022-08-12T12:20:38.388Z,3936.00
2022-08-12T12:21:47.172Z,3924.00
2022-08-12T12:22:38.244Z,3932.00
2022-08-12T12:23:38.187Z,3928.00
2022-08-12T12:24:38.184Z,3932.00
2022-08-12T12:26:06.387Z,3976.00
2022-08-12T12:26:38.507Z,3920.00
2022-08-12T12:28:00.672Z,3928.00
2022-08-12T12:28:39.700Z,3920.00
2022-08-12T12:30:19.121Z,3968.00
2022-08-12T12:30:38.183Z,3968.00
2022-08-12T12:32:11.153Z,3940.00
2022-08-12T12:32:38.110Z,3936.00
2022-08-12T12:33:57.192Z,3956.00
2022-08-12T12:34:38.096Z,3956.00
2022-08-12T12:36:18.695Z,3968.00
2022-08-12T12:36:38.291Z,3976.00
2022-08-12T12:38:03.252Z,3960.00
2022-08-12T12:38:38.030Z,3960.00
2022-08-12T12:39:54.597Z,3968.00
2022-08-12T12:40:39.823Z,3972.00
2022-08-12T12:42:54.481Z,3956.00
2022-08-12T12:43:05.125Z,3968.00
2022-08-12T12:43:43.609Z,3956.00
2022-08-12T12:44:42.111Z,3844.00
2022-08-12T12:45:37.969Z,3952.00
2022-08-12T12:46:37.995Z,3928.00
2022-08-12T12:47:37.952Z,3928.00
2022-08-12T12:48:41.382Z,3888.00
2022-08-12T12:49:37.904Z,3924.00
2022-08-12T12:50:45.684Z,3916.00
2022-08-12T12:51:49.298Z,4024.00
2022-08-12T12:52:37.964Z,3968.00
2022-08-12T12:54:08.415Z,3944.00
2022-08-12T12:54:37.905Z,3932.00
2022-08-12T12:55:37.846Z,3928.00
2022-08-12T12:56:37.833Z,3916.00
2022-08-12T12:58:00.727Z,3896.00
2022-08-12T12:58:37.826Z,3932.00
2022-08-12T12:59:56.908Z,3980.00
2022-08-12T13:00:37.837Z,4028.00
2022-08-12T13:01:51.266Z,4012.00
2022-08-12T13:02:37.782Z,3992.00
2022-08-12T13:03:48.687Z,3972.00
2022-08-12T13:04:37.980Z,3992.00
2022-08-12T13:05:42.707Z,4020.00
2022-08-12T13:06:37.733Z,3976.00
2022-08-12T13:07:54.234Z,3968.00
2022-08-12T13:08:37.728Z,4016.00
2022-08-12T13:09:37.720Z,3992.00